createdAt,value
2023-04-22T00:02:17.420Z,8.38
2023-04-22T00:04:47.586Z,8.63
2023-04-22T00:09:42.554Z,7.60
2023-04-22T00:12:11.781Z,8.13
2023-04-22T00:14:38.934Z,7.65
2023-04-22T00:17:07.006Z,7.57
2023-04-22T00:19:34.705Z,8.43
2023-04-22T00:22:01.871Z,7.22
2023-04-22T00:24:29.317Z,7.22
2023-04-22T00:26:56.202Z,7.30
2023-04-22T00:29:22.960Z,6.60
2023-04-22T00:31:49.915Z,7.97
2023-04-22T00:34:19.926Z,7.45
2023-04-22T00:36:46.807Z,7.40
2023-04-22T00:39:14.029Z,6.95
2023-04-22T00:41:40.818Z,7.43
2023-04-22T00:44:11.997Z,6.60
2023-04-22T00:46:39.823Z,7.55
2023-04-22T00:49:07.977Z,7.25
2023-04-22T00:51:34.957Z,7.38
2023-04-22T00:54:02.123Z,6.88
2023-04-22T00:56:30.100Z,7.88
2023-04-22T00:58:58.032Z,7.20
2023-04-22T01:01:25.045Z,6.57
2023-04-22T01:03:52.961Z,6.68
2023-04-22T01:06:20.491Z,6.55
2023-04-22T01:08:48.006Z,7.43
2023-04-22T01:11:14.829Z,6.75
2023-04-22T01:13:42.118Z,6.65
2023-04-22T01:16:10.054Z,7.72
2023-04-22T01:18:37.114Z,7.13
2023-04-22T01:21:04.449Z,7.75
2023-04-22T01:23:31.259Z,6.93
2023-04-22T01:25:58.147Z,6.60
2023-04-22T01:28:25.845Z,7.10
2023-04-22T01:30:52.673Z,7.15
2023-04-22T01:33:19.428Z,6.50
2023-04-22T01:35:46.447Z,6.25
2023-04-22T01:38:13.767Z,7.38
2023-04-22T01:40:41.030Z,6.88
2023-04-22T01:43:07.957Z,7.68
2023-04-22T01:45:34.869Z,6.63
2023-04-22T01:48:01.742Z,6.93
2023-04-22T01:50:28.516Z,9.35
2023-04-22T01:52:56.543Z,8.35
2023-04-22T01:55:23.400Z,9.48
2023-04-22T01:57:50.233Z,8.88
2023-04-22T02:00:17.212Z,9.68
2023-04-22T02:02:44.099Z,8.48
2023-04-22T02:05:11.304Z,9.52
2023-04-22T02:07:38.026Z,9.27
2023-04-22T02:10:05.993Z,9.10
2023-04-22T02:12:32.836Z,8.48
2023-04-22T02:14:59.540Z,8.18
2023-04-22T02:17:27.139Z,8.52
2023-04-22T02:19:54.065Z,7.20
2023-04-22T02:22:22.130Z,7.72
2023-04-22T02:24:49.024Z,8.20
2023-04-22T02:27:15.694Z,7.57
2023-04-22T02:29:42.677Z,7.70
2023-04-22T02:32:09.430Z,8.10
2023-04-22T02:34:36.570Z,7.20
2023-04-22T02:37:03.399Z,8.02
2023-04-22T02:39:30.135Z,8.82
2023-04-22T02:41:56.917Z,8.25
2023-04-22T02:44:23.619Z,7.00
2023-04-22T02:46:50.702Z,6.22
2023-04-22T02:49:17.502Z,6.93
2023-04-22T02:51:44.445Z,6.55
2023-04-22T02:54:11.186Z,7.15
2023-04-22T02:56:37.962Z,7.97
2023-04-22T02:59:04.703Z,8.07
2023-04-22T03:01:32.324Z,7.07
2023-04-22T03:03:59.733Z,8.90
2023-04-22T03:06:26.944Z,7.28
2023-04-22T03:08:53.631Z,7.93
2023-04-22T03:11:20.928Z,7.97
2023-04-22T03:13:47.736Z,8.75
2023-04-22T03:16:14.471Z,7.85
2023-04-22T03:18:41.522Z,8.32
2023-04-22T03:21:08.502Z,6.85
2023-04-22T03:23:35.617Z,8.18
2023-04-22T03:26:02.436Z,7.82
2023-04-22T03:28:29.111Z,7.30
2023-04-22T03:30:55.775Z,7.65
2023-04-22T03:33:22.691Z,9.25
2023-04-22T03:35:49.934Z,8.48
2023-04-22T03:38:16.884Z,6.82
2023-04-22T03:40:43.768Z,7.38
2023-04-22T03:43:10.451Z,7.05
2023-04-22T03:45:37.271Z,7.22
2023-04-22T03:48:04.216Z,7.28
2023-04-22T03:50:31.178Z,9.23
2023-04-22T03:52:57.866Z,8.10
2023-04-22T03:55:24.623Z,7.50
2023-04-22T03:57:51.375Z,7.90
2023-04-22T04:00:18.165Z,7.05
2023-04-22T04:02:44.983Z,7.53
2023-04-22T04:05:12.147Z,7.85
2023-04-22T04:07:38.923Z,8.40
2023-04-22T04:10:06.355Z,7.75
2023-04-22T04:12:33.064Z,8.00
2023-04-22T04:14:59.733Z,6.75
2023-04-22T04:17:26.642Z,7.68
2023-04-22T04:19:53.577Z,7.50
2023-04-22T04:22:20.765Z,8.25
2023-04-22T04:24:47.601Z,8.18
2023-04-22T04:27:14.433Z,8.55
2023-04-22T04:29:42.270Z,7.47
2023-04-22T04:32:10.131Z,8.45
2023-04-22T04:34:39.484Z,7.85
2023-04-22T04:37:06.500Z,7.85
2023-04-22T04:39:33.679Z,7.45
2023-04-22T04:42:00.516Z,7.72
2023-04-22T04:44:27.491Z,9.20
2023-04-22T04:46:57.834Z,8.02
2023-04-22T04:51:51.161Z,6.47
2023-04-22T04:54:17.922Z,8.10
2023-04-22T04:56:44.726Z,7.10
2023-04-22T04:59:11.445Z,7.93
2023-04-22T05:01:38.782Z,6.53
2023-04-22T05:04:05.729Z,6.22
2023-04-22T05:06:35.091Z,7.10
2023-04-22T05:09:01.822Z,8.35
2023-04-22T05:11:28.553Z,8.05
2023-04-22T05:13:55.197Z,6.57
2023-04-22T05:16:22.281Z,6.97
2023-04-22T05:18:49.019Z,7.00
2023-04-22T05:21:16.854Z,8.23
2023-04-22T05:23:43.579Z,6.65
2023-04-22T05:26:10.233Z,8.18
2023-04-22T05:28:36.899Z,6.30
2023-04-22T05:31:03.576Z,6.20
2023-04-22T05:33:30.323Z,7.25
2023-04-22T05:35:57.075Z,5.22
2023-04-22T05:38:23.834Z,5.97
2023-04-22T05:40:50.629Z,4.85
2023-04-22T05:43:17.328Z,6.22
2023-04-22T05:45:44.142Z,7.70
2023-04-22T05:48:10.858Z,7.25
2023-04-22T05:50:37.659Z,5.80
2023-04-22T05:53:04.373Z,6.20
2023-04-22T05:55:31.207Z,6.30
2023-04-22T05:57:58.050Z,7.60
2023-04-22T06:00:24.995Z,7.57
2023-04-22T06:02:51.885Z,8.43
2023-04-22T06:05:18.808Z,7.50
2023-04-22T06:07:45.590Z,6.78
2023-04-22T06:10:12.379Z,7.07
2023-04-22T06:12:39.146Z,6.90
2023-04-22T06:15:06.535Z,7.15
2023-04-22T06:17:33.278Z,7.50
2023-04-22T06:20:00.041Z,4.68
2023-04-22T06:22:26.845Z,6.68
2023-04-22T06:24:53.579Z,8.20
2023-04-22T06:27:20.289Z,6.63
2023-04-22T06:29:47.022Z,7.47
2023-04-22T06:32:13.719Z,8.13
2023-04-22T06:34:40.468Z,7.82
2023-04-22T06:37:07.215Z,7.47
2023-04-22T06:39:33.937Z,8.10
2023-04-22T06:42:01.735Z,8.20
2023-04-22T06:44:29.273Z,7.55
2023-04-22T06:46:57.868Z,6.72
2023-04-22T06:49:25.034Z,7.72
2023-04-22T06:51:51.753Z,7.32
2023-04-22T06:54:18.510Z,6.50
2023-04-22T06:56:45.363Z,7.47
2023-04-22T06:59:12.140Z,7.90
2023-04-22T07:01:38.823Z,8.38
2023-04-22T07:04:25.525Z,7.43
2023-04-22T07:07:01.294Z,8.23
2023-04-22T07:09:30.423Z,7.50
2023-04-22T07:11:58.691Z,8.38
2023-04-22T07:14:37.389Z,7.90
2023-04-22T07:17:05.388Z,8.75
2023-04-22T07:19:44.532Z,8.20
2023-04-22T07:22:20.484Z,6.63
2023-04-22T07:24:50.489Z,7.40
2023-04-22T07:27:23.240Z,7.78
2023-04-22T07:29:57.812Z,7.28
2023-04-22T07:32:25.429Z,7.18
2023-04-22T07:34:58.188Z,7.57
2023-04-22T07:37:26.196Z,6.60
2023-04-22T07:39:59.085Z,7.05
2023-04-22T07:42:31.806Z,6.13
2023-04-22T07:45:00.248Z,7.45
2023-04-22T07:47:28.721Z,6.65
2023-04-22T07:49:56.441Z,8.80
2023-04-22T07:52:24.760Z,7.80
2023-04-22T07:54:57.526Z,6.50
2023-04-22T07:57:26.216Z,6.28
2023-04-22T07:59:57.626Z,7.15
2023-04-22T08:02:24.784Z,7.22
2023-04-22T08:04:52.058Z,6.57
2023-04-22T08:07:32.640Z,6.78
2023-04-22T08:10:00.255Z,6.63
2023-04-22T08:12:27.174Z,7.55
2023-04-22T08:14:54.241Z,7.75
2023-04-22T08:17:22.236Z,7.35
2023-04-22T08:19:49.574Z,7.53
2023-04-22T08:22:18.629Z,8.00
2023-04-22T08:24:45.540Z,6.93
2023-04-22T08:27:13.999Z,6.38
2023-04-22T08:29:44.423Z,7.57
2023-04-22T08:32:11.638Z,6.57
2023-04-22T08:34:41.805Z,7.03
2023-04-22T08:39:36.137Z,6.10
2023-04-22T08:42:04.108Z,7.20
2023-04-22T08:44:31.441Z,6.15
2023-04-22T08:47:02.631Z,6.20
2023-04-22T08:49:30.303Z,5.85
2023-04-22T08:51:57.274Z,5.90
2023-04-22T08:54:24.367Z,5.47
2023-04-22T08:56:51.781Z,5.43
2023-04-22T08:59:19.006Z,5.63
2023-04-22T09:01:50.194Z,5.97
2023-04-22T09:04:18.945Z,6.93
2023-04-22T09:06:46.048Z,6.30
2023-04-22T09:09:12.732Z,5.97
2023-04-22T09:11:39.471Z,2.90
2023-04-22T09:14:06.708Z,5.35
2023-04-22T09:16:34.328Z,4.93
2023-04-22T09:19:33.906Z,5.60
2023-04-22T09:25:26.135Z,4.22
2023-04-22T09:27:55.491Z,4.10
2023-04-22T09:30:27.250Z,4.47
2023-04-22T09:33:00.242Z,6.35
2023-04-22T09:35:40.711Z,5.15
2023-04-22T09:38:31.200Z,1.55
2023-04-22T09:40:58.278Z,4.43
2023-04-22T09:43:25.506Z,4.85
2023-04-22T09:49:39.504Z,4.50
2023-04-22T09:52:06.927Z,3.35
2023-04-22T09:54:33.731Z,4.40
2023-04-22T09:57:01.528Z,4.30
2023-04-22T10:02:00.252Z,3.28
2023-04-22T10:04:28.446Z,3.55
2023-04-22T10:06:56.330Z,4.35
2023-04-22T10:09:25.255Z,3.67
2023-04-22T10:11:54.482Z,3.38
2023-04-22T10:14:22.340Z,3.33
2023-04-22T10:16:52.246Z,2.88
2023-04-22T10:19:23.979Z,3.70
2023-04-22T10:21:57.237Z,3.42
2023-04-22T10:24:27.723Z,4.00
2023-04-22T10:26:58.013Z,4.60
2023-04-22T10:29:26.638Z,4.90
2023-04-22T10:31:55.115Z,4.83
2023-04-22T10:34:21.920Z,4.68
2023-04-22T10:36:56.022Z,4.18
2023-04-22T10:39:24.058Z,4.28
2023-04-22T10:42:11.250Z,4.35
2023-04-22T10:44:51.715Z,4.50
2023-04-22T10:47:26.658Z,4.68
2023-04-22T10:50:12.093Z,4.20
2023-04-22T10:52:40.566Z,4.00
2023-04-22T10:55:07.553Z,4.20
2023-04-22T10:57:42.892Z,4.10
2023-04-22T11:00:38.146Z,3.95
2023-04-22T11:03:15.536Z,4.07
2023-04-22T11:05:43.441Z,3.67
2023-04-22T11:08:23.902Z,3.90
2023-04-22T11:10:51.738Z,4.10
2023-04-22T11:13:21.513Z,4.60
2023-04-22T11:15:50.833Z,4.45
2023-04-22T11:18:23.162Z,4.82
2023-04-22T11:20:52.455Z,5.03
2023-04-22T11:23:22.536Z,4.70
2023-04-22T11:25:55.252Z,4.50
2023-04-22T11:28:23.185Z,5.18
2023-04-22T11:30:50.208Z,5.68
2023-04-22T11:33:17.393Z,6.28
2023-04-22T11:35:44.237Z,6.38
2023-04-22T11:38:11.052Z,7.27
2023-04-22T11:40:46.045Z,6.93
2023-04-22T11:43:13.520Z,7.07
2023-04-22T11:45:40.525Z,5.13
2023-04-22T11:48:09.632Z,6.00
2023-04-22T11:50:38.908Z,6.10
2023-04-22T11:53:14.028Z,4.68
2023-04-22T11:55:41.816Z,4.80
2023-04-22T11:58:15.069Z,4.28
2023-04-22T12:00:52.711Z,5.20
2023-04-22T12:03:27.965Z,4.83
2023-04-22T12:05:58.103Z,4.80
2023-04-22T12:08:26.384Z,4.83
2023-04-22T12:10:55.898Z,4.53
2023-04-22T12:13:26.474Z,4.22
2023-04-22T12:15:57.674Z,3.70
2023-04-22T12:18:41.819Z,3.97
2023-04-22T12:21:14.921Z,3.88
2023-04-22T12:23:46.364Z,3.15
2023-04-22T12:26:13.619Z,3.17
2023-04-22T12:28:42.420Z,2.90
2023-04-22T12:31:10.364Z,3.38
2023-04-22T12:33:38.289Z,3.00
2023-04-22T12:36:06.313Z,3.10
2023-04-22T12:38:33.493Z,3.38
2023-04-22T12:41:00.594Z,3.30
2023-04-22T12:43:27.484Z,3.30
2023-04-22T12:45:54.276Z,3.20
2023-04-22T12:48:21.200Z,3.53
2023-04-22T12:50:48.032Z,3.72
2023-04-22T12:53:15.297Z,3.60
2023-04-22T12:55:44.591Z,3.70
2023-04-22T12:58:12.869Z,3.38
2023-04-22T13:00:39.945Z,2.90
2023-04-22T13:03:18.002Z,3.47
2023-04-22T13:05:45.491Z,3.22
2023-04-22T13:08:12.444Z,3.67
2023-04-22T13:10:39.911Z,3.63
2023-04-22T13:15:39.128Z,3.60
2023-04-22T13:18:06.388Z,3.55
2023-04-22T13:20:34.296Z,3.25
2023-04-22T13:23:02.528Z,3.47
2023-04-22T13:25:31.586Z,3.55
2023-04-22T13:27:58.489Z,3.40
2023-04-22T13:30:25.671Z,3.88
2023-04-22T13:32:52.803Z,3.10
2023-04-22T13:35:27.813Z,4.07
2023-04-22T13:38:02.001Z,3.58
2023-04-22T13:40:28.977Z,4.65
2023-04-22T13:42:55.802Z,4.40
2023-04-22T13:45:22.703Z,3.47
2023-04-22T13:47:49.656Z,3.63
2023-04-22T13:50:16.822Z,3.67
2023-04-22T13:52:43.951Z,3.50
2023-04-22T13:55:10.967Z,3.60
2023-04-22T13:57:37.871Z,3.25
2023-04-22T14:00:06.255Z,3.30
2023-04-22T14:02:33.341Z,3.00
2023-04-22T14:05:00.994Z,2.92
2023-04-22T14:07:39.097Z,3.50
2023-04-22T14:10:08.442Z,3.42
2023-04-22T14:12:35.262Z,3.15
2023-04-22T14:15:02.081Z,2.60
2023-04-22T14:17:29.045Z,2.92
2023-04-22T14:19:56.019Z,3.30
2023-04-22T14:22:23.326Z,3.72
2023-04-22T14:24:50.357Z,3.30
2023-04-22T14:27:17.165Z,3.10
2023-04-22T14:29:45.665Z,3.13
2023-04-22T14:32:12.500Z,3.20
2023-04-22T14:34:39.537Z,3.08
2023-04-22T14:37:06.655Z,2.75
2023-04-22T14:39:34.390Z,2.50
2023-04-22T14:42:03.623Z,2.78
2023-04-22T14:44:31.157Z,2.90
2023-04-22T14:46:59.051Z,2.73
2023-04-22T14:49:26.503Z,2.50
2023-04-22T14:52:04.516Z,2.50
2023-04-22T14:54:31.537Z,2.70
2023-04-22T14:56:58.794Z,2.85
2023-04-22T14:59:26.744Z,2.67
2023-04-22T15:02:01.077Z,2.58
2023-04-22T15:04:39.502Z,2.78
2023-04-22T15:07:07.733Z,2.67
2023-04-22T15:09:35.019Z,2.20
2023-04-22T15:12:05.172Z,2.70
2023-04-22T15:14:35.563Z,2.60
2023-04-22T15:17:12.849Z,2.53
2023-04-22T15:19:49.255Z,2.65
2023-04-22T15:22:16.129Z,2.63
2023-04-22T15:24:43.077Z,2.60
2023-04-22T15:27:10.698Z,2.58
2023-04-22T15:29:38.233Z,2.47
2023-04-22T15:32:07.451Z,2.47
2023-04-22T15:34:35.526Z,2.55
2023-04-22T15:37:02.352Z,2.80
2023-04-22T15:39:29.236Z,2.30
2023-04-22T15:42:04.985Z,2.40
2023-04-22T15:44:32.522Z,2.03
2023-04-22T15:46:59.863Z,2.00
2023-04-22T15:49:26.773Z,2.05
2023-04-22T15:51:53.959Z,2.40
2023-04-22T15:54:31.894Z,2.58
2023-04-22T15:56:58.690Z,2.40
2023-04-22T15:59:25.998Z,1.95
2023-04-22T16:01:53.343Z,2.23
2023-04-22T16:04:26.654Z,2.33
2023-04-22T16:06:53.622Z,2.45
2023-04-22T16:09:20.977Z,2.30
2023-04-22T16:11:47.923Z,2.50
2023-04-22T16:14:14.828Z,2.15
2023-04-22T16:16:41.676Z,2.00
2023-04-22T16:19:08.835Z,2.42
2023-04-22T16:21:36.014Z,2.35
2023-04-22T16:24:02.851Z,2.50
2023-04-22T16:26:29.641Z,2.50
2023-04-22T16:28:56.442Z,2.37
2023-04-22T16:31:23.736Z,2.47
2023-04-22T16:33:51.812Z,2.30
2023-04-22T16:36:18.941Z,2.47
2023-04-22T16:38:46.287Z,2.50
2023-04-22T16:41:24.413Z,2.33
2023-04-22T16:43:51.422Z,2.33
2023-04-22T16:46:18.308Z,2.50
2023-04-22T16:48:45.813Z,2.40
2023-04-22T16:51:13.186Z,2.40
2023-04-22T16:53:47.499Z,2.17
2023-04-22T16:56:14.886Z,2.20
2023-04-22T16:58:42.371Z,2.27
2023-04-22T17:01:09.890Z,2.10
2023-04-22T17:03:37.471Z,2.10
2023-04-22T17:06:04.647Z,2.10
2023-04-22T17:08:32.106Z,1.87
2023-04-22T17:10:59.030Z,2.15
2023-04-22T17:13:25.801Z,2.22
2023-04-22T17:15:53.022Z,2.00
2023-04-22T17:18:20.284Z,1.90
2023-04-22T17:20:47.347Z,2.03
2023-04-22T17:23:14.249Z,1.92
2023-04-22T17:25:41.693Z,1.80
2023-04-22T17:28:16.372Z,2.03
2023-04-22T17:30:43.607Z,1.83
2023-04-22T17:33:10.871Z,1.83
2023-04-22T17:35:38.087Z,1.75
2023-04-22T17:38:08.231Z,2.10
2023-04-22T17:40:35.487Z,1.95
2023-04-22T17:43:02.735Z,2.08
2023-04-22T17:45:29.695Z,1.95
2023-04-22T17:47:57.331Z,2.20
2023-04-22T17:50:24.375Z,1.95
2023-04-22T17:52:51.532Z,2.20
2023-04-22T17:55:18.874Z,2.20
2023-04-22T17:57:53.873Z,2.00
2023-04-22T18:00:22.500Z,1.98
2023-04-22T18:02:49.711Z,2.08
2023-04-22T18:05:16.673Z,2.22
2023-04-22T18:07:43.520Z,2.13
2023-04-22T18:10:11.245Z,1.70
2023-04-22T18:12:38.372Z,1.90
2023-04-22T18:15:06.497Z,2.10
2023-04-22T18:17:33.605Z,1.80
2023-04-22T18:20:13.953Z,1.58
2023-04-22T18:22:44.629Z,1.40
2023-04-22T18:25:11.317Z,1.20
2023-04-22T18:27:37.960Z,1.08
2023-04-22T18:30:05.381Z,1.42
2023-04-22T18:32:32.116Z,1.42
2023-04-22T18:34:58.861Z,1.90
2023-04-22T18:37:29.636Z,1.23
2023-04-22T18:39:59.568Z,1.63
2023-04-22T18:42:26.277Z,1.45
2023-04-22T18:44:52.959Z,0.90
2023-04-22T18:47:19.859Z,1.20
2023-04-22T18:49:46.597Z,1.08
2023-04-22T18:52:13.587Z,0.93
2023-04-22T18:54:40.971Z,1.10
2023-04-22T18:57:08.189Z,1.13
2023-04-22T18:59:34.869Z,1.10
2023-04-22T19:02:01.652Z,0.90
2023-04-22T19:04:28.353Z,1.10
2023-04-22T19:06:57.050Z,1.10
2023-04-22T19:09:24.117Z,1.02
2023-04-22T19:11:50.894Z,0.68
2023-04-22T19:14:17.699Z,1.00
2023-04-22T19:16:44.430Z,0.38
2023-04-22T19:19:12.159Z,1.13
2023-04-22T19:21:39.551Z,0.85
2023-04-22T19:24:06.796Z,1.02
2023-04-22T19:26:33.970Z,1.10
2023-04-22T19:29:00.702Z,1.15
2023-04-22T19:31:30.770Z,1.05
2023-04-22T19:36:24.183Z,1.48
2023-04-22T19:38:50.892Z,1.35
2023-04-22T19:41:17.626Z,1.38
2023-04-22T19:43:44.404Z,1.05
2023-04-22T19:46:11.864Z,1.00
2023-04-22T19:48:38.984Z,0.98
2023-04-22T19:51:06.634Z,1.10
2023-04-22T19:53:35.005Z,1.35
2023-04-22T19:56:03.065Z,0.88
2023-04-22T19:58:30.749Z,1.17
2023-04-22T20:00:57.757Z,1.48
2023-04-22T20:03:25.032Z,1.42
2023-04-22T20:05:52.270Z,1.23
2023-04-22T20:08:20.064Z,1.38
2023-04-22T20:10:49.326Z,1.35
2023-04-22T20:13:17.268Z,1.45
2023-04-22T20:15:44.509Z,0.73
2023-04-22T20:18:11.945Z,0.70
2023-04-22T20:20:40.828Z,1.10
2023-04-22T20:23:12.741Z,1.20
2023-04-22T20:25:44.222Z,0.95
2023-04-22T20:28:11.165Z,0.90
2023-04-22T20:30:38.422Z,0.63
2023-04-22T20:33:05.484Z,1.23
2023-04-22T20:35:32.530Z,0.90
2023-04-22T20:38:00.638Z,1.10
2023-04-22T20:40:29.056Z,1.70
2023-04-22T20:42:58.533Z,1.85
2023-04-22T20:45:27.237Z,1.83
2023-04-22T20:47:54.076Z,2.10
2023-04-22T20:50:20.937Z,2.30
2023-04-22T20:52:49.108Z,1.48
2023-04-22T20:55:17.011Z,2.03
2023-04-22T20:57:44.026Z,1.80
2023-04-22T21:00:12.098Z,1.30
2023-04-22T21:02:40.013Z,0.85
2023-04-22T21:05:07.537Z,1.42
2023-04-22T21:07:35.132Z,1.10
2023-04-22T21:10:02.207Z,0.90
2023-04-22T21:12:29.148Z,1.05
2023-04-22T21:14:56.365Z,1.17
2023-04-22T21:17:26.497Z,1.10
2023-04-22T21:19:56.942Z,0.80
2023-04-22T21:22:24.660Z,0.90
2023-04-22T21:24:52.852Z,0.90
2023-04-22T21:27:21.709Z,1.02
2023-04-22T21:29:57.097Z,1.05
2023-04-22T21:32:23.965Z,0.98
2023-04-22T21:34:51.104Z,0.85
2023-04-22T21:37:17.898Z,0.85
2023-04-22T21:39:44.838Z,1.00
2023-04-22T21:42:11.997Z,0.80
2023-04-22T21:44:38.923Z,0.63
2023-04-22T21:47:06.600Z,0.73
2023-04-22T21:49:33.430Z,0.95
2023-04-22T21:52:00.296Z,0.70
2023-04-22T21:54:27.116Z,0.98
2023-04-22T21:56:53.840Z,1.13
2023-04-22T21:59:20.562Z,0.95
2023-04-22T22:01:47.345Z,1.15
2023-04-22T22:04:16.017Z,0.98
2023-04-22T22:06:44.065Z,1.40
2023-04-22T22:09:11.650Z,1.30
2023-04-22T22:11:38.402Z,1.00
2023-04-22T22:14:05.167Z,1.33
2023-04-22T22:16:32.093Z,1.60
2023-04-22T22:18:58.975Z,1.42
2023-04-22T22:21:25.623Z,1.23
2023-04-22T22:23:52.379Z,1.02
2023-04-22T22:26:19.389Z,1.20
2023-04-22T22:28:46.426Z,1.35
2023-04-22T22:31:13.174Z,1.02
2023-04-22T22:33:39.815Z,1.10
2023-04-22T22:36:06.690Z,1.40
2023-04-22T22:38:33.529Z,1.10
2023-04-22T22:41:00.403Z,1.00
2023-04-22T22:43:27.150Z,0.75
2023-04-22T22:45:54.127Z,1.20
2023-04-22T22:48:21.051Z,0.93
2023-04-22T22:50:48.999Z,1.05
2023-04-22T22:53:16.022Z,1.05
2023-04-22T22:55:42.800Z,0.88
2023-04-22T22:58:09.817Z,2.00
2023-04-22T23:00:37.011Z,0.90
2023-04-22T23:03:04.449Z,0.95
2023-04-22T23:05:31.929Z,0.90
2023-04-22T23:07:58.580Z,0.63
2023-04-22T23:10:25.451Z,1.00
2023-04-22T23:12:52.224Z,1.00
2023-04-22T23:15:18.927Z,0.77
2023-04-22T23:17:45.925Z,1.45
2023-04-22T23:20:12.845Z,1.08
2023-04-22T23:22:40.649Z,1.45
2023-04-22T23:25:08.830Z,1.40
2023-04-22T23:27:36.121Z,1.17
2023-04-22T23:30:04.711Z,1.52
2023-04-22T23:32:32.596Z,0.70
2023-04-22T23:35:01.799Z,0.80
2023-04-22T23:37:29.460Z,1.00
2023-04-22T23:39:56.449Z,1.02
2023-04-22T23:42:23.213Z,0.80
2023-04-22T23:44:50.153Z,0.47
2023-04-22T23:47:17.428Z,0.70
2023-04-22T23:49:44.625Z,1.17
2023-04-22T23:52:13.128Z,0.82
2023-04-22T23:54:48.891Z,0.38
2023-04-22T23:57:16.584Z,1.13
2023-04-22T23:59:44.404Z,0.85
